• Join FlightAware (Why Join?)
  • Login
  • US Flag 
11:32PM EDT


 

Airport Tracker/Info


-or-


 

Live Flight TrackerFlight Track Log ✈ N559LC ✈ 10-Jul-2013 ✈ KDTW - CYVR

Flight Track Log - Related Links

Times and Time Zones

All times are in EDT time to prevent confusion due to time zone crossing. See the N559LC flight status page for this flight to view local times or setup timezone preferences in your user account.

Time Position Orientation Groundspeed Altitude Reporting Facility
EDT Latitude Longitude Course Direction KTS MPH feet Rate Location/Type
09:52AM 42.1892 -83.3578 191° South 174 200 1,400  Level Cleveland Center
09:53AM 42.1239 -83.3744 191° South 265 305 2,900 2,100 Climbing Cleveland Center
09:54AM 42.0728 -83.4281 218° Southwest 256 295 5,700 2,700 Climbing Cleveland Center
09:55AM 42.0828 -83.5236 278° West 261 300 8,500 2,340 Climbing Cleveland Center
09:56AM 42.1186 -83.5925 305° West 265 305 10,500 1,680 Climbing Cleveland Center
09:58AM 42.1819 -83.7133 305° West 309 356 12,400 1,020 Climbing Cleveland Center
09:59AM 42.2294 -83.8108 303° West 315 362 13,000 960 Climbing Cleveland Center
09:59AM 42.2808 -83.9092 305° West 315 362 14,400 1,560 Climbing Cleveland Center
10:00AM 42.3300 -84.0100 303° West 315 362 16,200 1,740 Climbing Cleveland Center
10:02AM 42.3811 -84.1083 305° West 315 362 18,000 1,560 Climbing Cleveland Center
10:04AM 42.4333 -84.4142 283° West 350 403 21,800 1,500 Climbing Chicago Center
10:05AM 42.4372 -84.5486 272° West 357 411 23,300 1,140 Climbing Chicago Center
10:06AM 42.4406 -84.6878 272° West 368 423 24,200 960 Climbing Chicago Center
10:07AM 42.4436 -84.8333 272° West 380 437 25,300 960 Climbing Chicago Center
10:08AM 42.4469 -84.9808 272° West 389 448 26,300 1,020 Climbing Chicago Center
10:09AM 42.4506 -85.1333 272° West 399 459 27,500 1,200 Climbing Chicago Center
10:10AM 42.4531 -85.3172 271° West 405 466 28,900 1,440 Climbing Chicago Center
10:11AM 42.4561 -85.4683 272° West 404 465 30,500 1,440 Climbing Chicago Center
10:12AM 42.4581 -85.6128 271° West 388 447 31,900 960 Climbing Chicago Center
10:13AM 42.4614 -85.7547 272° West 380 437 32,500 780 Climbing Chicago Center
10:14AM 42.4619 -85.8986 270° West 380 437 33,600 960 Climbing Chicago Center
10:15AM 42.4661 -86.0408 272° West 378 435 34,600 840 Climbing Chicago Center
10:16AM 42.4950 -86.2061 283° West 379 436 35,400 660 Climbing Chicago Center
10:17AM 42.5367 -86.3394 293° West 382 440 36,000 480 Climbing Chicago Center
10:18AM 42.5781 -86.4739 293° West 384 442 36,400 360 Climbing Chicago Center
10:20AM 42.6197 -86.6083 293° West 384 442 36,800 360 Climbing Chicago Center
10:21AM 42.6603 -86.7414 293° West 379 436 37,200 420 Climbing Chicago Center
10:22AM 42.6997 -86.8744 292° West 378 435 37,700 480 Climbing Chicago Center
10:23AM 42.7400 -87.0039 293° West 371 427 38,200 480 Climbing Chicago Center
10:24AM 42.7853 -87.1575 292° West 366 421 38,800 480 Climbing Chicago Center
10:25AM 42.8244 -87.2875 292° West 371 427 39,300 480 Climbing Chicago Center
10:26AM 42.8636 -87.4219 292° West 364 419 39,800 300 Climbing Chicago Center
10:27AM 42.9039 -87.5533 293° West 373 429 40,000 60 Climbing Chicago Center
10:28AM 42.9417 -87.6842 292° West 372 428 40,000  Level Chicago Center
10:29AM 42.9797 -87.8131 292° West 368 423 40,000  Level Chicago Center
10:30AM 43.0172 -87.9411 292° West 364 419 40,000  Level Chicago Center
10:31AM 43.0606 -88.0933 291° West 366 421 40,000  Level Chicago Center
10:32AM 43.0981 -88.2217 292° West 364 419 40,000  Level Chicago Center
10:33AM 43.1522 -88.3417 302° West 368 423 40,000  Level Chicago Center
10:34AM 43.2225 -88.4503 312° West 376 433 40,000  Level Chicago Center
10:35AM 43.2956 -88.5608 312° West 384 442 40,000  Level Chicago Center
10:36AM 43.3683 -88.6733 312° West 386 444 40,000  Level Chicago Center
10:37AM 43.4422 -88.7842 313° West 387 445 40,000  Level Chicago Center
10:38AM 43.5269 -88.9142 312° West 388 447 40,000  Level Chicago Center
10:39AM 43.5989 -89.0253 312° West 386 444 40,000  Level Chicago Center
10:40AM 43.6692 -89.1347 312° West 380 437 40,000  Level Chicago Center
10:41AM 43.7403 -89.2461 311° West 385 443 40,000  Level Chicago Center
10:42AM 43.8100 -89.3558 311° West 381 438 40,000  Level Chicago Center
10:43AM 43.8803 -89.4656 312° West 379 436 40,000  Level Chicago Center
10:44AM 43.9603 -89.5947 311° West 379 436 40,000  Level Chicago Center
10:45AM 44.0175 -89.6861 311° West 381 438 40,000  Level Minneapolis Center
10:46AM 44.0989 -89.8147 311° West 378 435 40,000  Level Minneapolis Center
10:47AM 44.1675 -89.9264 311° West 381 438 40,000  Level Minneapolis Center
10:48AM 44.2394 -90.0400 311° West 388 447 40,000  Level Minneapolis Center
10:49AM 44.3036 -90.1661 305° West 396 456 40,000  Level Minneapolis Center
10:50AM 44.3467 -90.3061 293° West 396 456 40,000  Level Minneapolis Center
10:52AM 44.3922 -90.4750 291° West 396 456 40,000  Level Minneapolis Center
10:53AM 44.4322 -90.6194 291° West 400 460 40,000  Level Minneapolis Center
10:54AM 44.4725 -90.7656 291° West 402 463 40,000  Level Minneapolis Center
10:55AM 44.5125 -90.9150 291° West 399 459 40,000  Level Minneapolis Center
10:56AM 44.5592 -91.0850 291° West 396 456 40,000  Level Minneapolis Center
10:57AM 44.5972 -91.2294 290° West 397 457 40,000  Level Minneapolis Center
10:58AM 44.6372 -91.3733 291° West 398 458 40,000  Level Minneapolis Center
10:59AM 44.6822 -91.5461 290° West 398 458 40,000  Level Minneapolis Center
11:00AM 44.7197 -91.6911 290° West 398 458 40,000  Level Minneapolis Center
11:01AM 44.7575 -91.8339 290° West 397 457 40,000  Level Minneapolis Center
11:02AM 44.7939 -91.9767 290° West 396 456 40,000  Level Minneapolis Center
11:03AM 44.8389 -92.1458 291° West 390 449 40,000  Level Minneapolis Center
11:04AM 44.8750 -92.2897 290° West 392 451 40,000  Level Minneapolis Center
11:05AM 44.9114 -92.4319 290° West 392 451 40,000  Level Minneapolis Center
11:06AM 44.9483 -92.5756 290° West 393 452 40,000  Level Minneapolis Center
11:07AM 44.9919 -92.7472 290° West 392 451 40,000  Level Minneapolis Center
11:08AM 45.0356 -92.9208 290° West 395 455 40,000  Level Minneapolis Center
11:10AM 45.0725 -93.0650 290° West 395 455 40,000  Level Minneapolis Center
11:11AM 45.1122 -93.2306 289° West 398 458 40,000  Level Minneapolis Center
11:12AM 45.1478 -93.3761 289° West 394 453 40,000  Level Minneapolis Center
11:13AM 45.1761 -93.5058 287° West 390 449 40,000  Level Minneapolis Center
11:14AM 45.2164 -93.6819 288° West 391 450 40,000  Level Minneapolis Center
11:15AM 45.2500 -93.8283 288° West 392 451 40,000  Level Minneapolis Center
11:16AM 45.2792 -93.9608 287° West 391 450 40,000  Level Minneapolis Center
11:17AM 45.3175 -94.1353 287° West 386 444 40,000  Level Minneapolis Center
11:18AM 45.3503 -94.2814 288° West 389 448 40,000  Level Minneapolis Center
11:19AM 45.3825 -94.4267 288° West 389 448 40,000  Level Minneapolis Center
11:20AM 45.4078 -94.5436 287° West 389 448 40,000  Level Minneapolis Center
11:21AM 45.4461 -94.7211 287° West 392 451 40,000  Level Minneapolis Center
11:22AM 45.4847 -94.8978 287° West 392 451 40,000  Level Minneapolis Center
11:23AM 45.5164 -95.0472 287° West 395 455 40,000  Level Minneapolis Center
11:24AM 45.5539 -95.2247 287° West 393 452 40,000  Level Minneapolis Center
11:25AM 45.5789 -95.3444 287° West 394 453 40,000  Level Minneapolis Center
11:26AM 45.6164 -95.5231 287° West 394 453 40,000  Level Minneapolis Center
11:27AM 45.6528 -95.7025 286° West 394 453 40,000  Level Minneapolis Center
11:28AM 45.6831 -95.8506 286° West 392 451 40,000  Level Minneapolis Center
11:29AM 45.7131 -95.9981 286° West 390 449 40,000  Level Minneapolis Center
11:30AM 45.7425 -96.1447 286° West 387 445 40,000  Level Minneapolis Center
11:31AM 45.7719 -96.2908 286° West 386 444 40,000  Level Minneapolis Center
11:32AM 45.8014 -96.4389 286° West 389 448 40,000  Level Minneapolis Center
11:34AM 45.8364 -96.6136 286° West 383 441 40,000  Level Minneapolis Center
11:35AM 45.8644 -96.7614 285° West 385 443 40,000  Level Minneapolis Center
11:36AM 45.8933 -96.9075 286° West 383 441 40,000  Level Minneapolis Center
11:37AM 45.9211 -97.0408 287° West 374 430 40,000  Level Minneapolis Center
11:38AM 45.9486 -97.1900 285° West 384 442 40,000  Level Minneapolis Center
11:39AM 45.9819 -97.3669 285° West 383 441 40,000  Level Minneapolis Center
11:40AM 46.0108 -97.5136 286° West 384 442 40,000  Level Minneapolis Center
11:41AM 46.0378 -97.6619 285° West 384 442 40,000  Level Minneapolis Center
11:42AM 46.0658 -97.8097 285° West 384 442 40,000  Level Minneapolis Center
11:43AM 46.0925 -97.9594 284° West 386 444 40,000  Level Minneapolis Center
11:44AM 46.1203 -98.1100 285° West 389 448 40,000  Level Minneapolis Center
11:45AM 46.1531 -98.2897 285° West 388 447 40,000  Level Minneapolis Center
11:46AM 46.1794 -98.4375 285° West 384 442 40,000  Level Minneapolis Center
11:47AM 46.2058 -98.5864 284° West 383 441 40,000  Level Minneapolis Center
11:48AM 46.2319 -98.7369 284° West 385 443 40,000  Level Minneapolis Center
11:49AM 46.2586 -98.8856 285° West 385 443 40,000  Level Minneapolis Center
11:50AM 46.2839 -99.0356 284° West 385 443 40,000  Level Minneapolis Center
11:51AM 46.3156 -99.2139 284° West 383 441 40,000  Level Minneapolis Center
11:52AM 46.3372 -99.3492 283° West 382 440 40,000  Level Minneapolis Center
11:53AM 46.3675 -99.5272 284° West 381 438 40,000  Level Minneapolis Center
11:54AM 46.3967 -99.7064 283° West 383 441 40,000  Level Minneapolis Center
11:55AM 46.4225 -99.8581 284° West 386 444 40,000  Level Minneapolis Center
11:56AM 46.4469 -100.0069 283° West 383 441 40,000  Level Minneapolis Center
11:58AM 46.4697 -100.1547 283° West 379 436 40,000  Level Minneapolis Center
11:59AM 46.4939 -100.3031 283° West 378 435 40,000  Level Minneapolis Center
12:00PM 46.5228 -100.4828 283° West 381 438 40,000  Level Minneapolis Center
12:01PM 46.5461 -100.6336 283° West 382 440 40,000  Level Minneapolis Center
12:02PM 46.5706 -100.7825 283° West 382 440 40,000  Level Minneapolis Center
12:03PM 46.5925 -100.9333 282° West 382 440 40,000  Level Minneapolis Center
12:04PM 46.6167 -101.0847 283° West 384 442 40,000  Level Minneapolis Center
12:05PM 46.6392 -101.2356 282° West 384 442 40,000 60 Level Minneapolis Center
12:06PM 46.6700 -101.4497 282° West 386 444 40,200 360 Climbing Minneapolis Center
12:07PM 46.6967 -101.6292 282° West 381 438 40,900 600 Climbing Minneapolis Center
12:08PM 46.7208 -101.7892 282° West 377 434 41,500 540 Climbing Minneapolis Center
12:09PM 46.7419 -101.9356 282° West 373 429 42,100 480 Climbing Minneapolis Center
12:10PM 46.7633 -102.0786 282° West 366 421 42,600 420 Climbing Minneapolis Center
12:11PM 46.7842 -102.2222 282° West 363 418 43,000 180 Climbing Minneapolis Center
12:12PM 46.8069 -102.3667 283° West 365 420 43,000  Level Minneapolis Center
12:13PM 46.8286 -102.5181 282° West 374 430 43,000  Level Minneapolis Center
12:14PM 46.8503 -102.6711 282° West 381 438 43,000  Level Minneapolis Center
12:16PM 46.8717 -102.8592 280° West 388 447 43,000  Level Minneapolis Center
12:17PM 46.8892 -103.0133 279° West 388 447 43,000  Level Minneapolis Center
12:18PM 46.9069 -103.2000 278° West 386 444 43,000  Level Minneapolis Center
12:19PM 46.9222 -103.3556 278° West 386 444 43,000  Level Minneapolis Center
12:20PM 46.9386 -103.5133 279° West 389 448 43,000  Level Minneapolis Center
12:21PM 46.9597 -103.7311 278° West 388 447 43,000  Level Minneapolis Center
12:22PM 46.9750 -103.8886 278° West 389 448 43,000  Level Minneapolis Center
12:23PM 46.9892 -104.0439 278° West 387 445 43,000  Level Minneapolis Center
12:24PM 47.0000 -104.1700 277° West 388 447 43,000  Level Minneapolis Center
12:25PM 47.0181 -104.3572 278° West 387 445 43,000  Level Minneapolis Center
12:26PM 47.0325 -104.5153 278° West 388 447 43,000  Level Minneapolis Center
12:28PM 47.0511 -104.7375 277° West 389 448 43,000  Level Salt Lake Center
12:29PM 47.0650 -104.8936 277° West 388 447 43,000  Level Salt Lake Center
12:30PM 47.0794 -105.0817 277° West 388 447 43,000  Level Salt Lake Center
12:31PM 47.0936 -105.2389 278° West 388 447 43,000  Level Salt Lake Center
12:32PM 47.1067 -105.3964 277° West 389 448 43,000  Level Salt Lake Center
12:33PM 47.1211 -105.5539 278° West 389 448 43,000  Level Salt Lake Center
12:34PM 47.1342 -105.7111 277° West 389 448 43,000  Level Salt Lake Center
12:35PM 47.1453 -105.8681 276° West 388 447 43,000  Level Salt Lake Center
12:36PM 47.1639 -106.0575 278° West 389 448 43,000  Level Salt Lake Center
12:37PM 47.1758 -106.2147 276° West 388 447 43,000  Level Salt Lake Center
12:38PM 47.1881 -106.3711 277° West 390 449 43,000  Level Salt Lake Center
12:39PM 47.1989 -106.5281 276° West 389 448 43,000  Level Salt Lake Center
12:40PM 47.2128 -106.7167 276° West 388 447 43,000  Level Salt Lake Center
12:42PM 47.2347 -107.0319 276° West 389 448 43,000  Level Salt Lake Center
12:43PM 47.2458 -107.1886 276° West 388 447 43,000  Level Salt Lake Center
12:44PM 47.2561 -107.3456 276° West 388 447 43,000  Level Salt Lake Center
12:45PM 47.2664 -107.5033 276° West 387 445 43,000  Level Salt Lake Center
12:46PM 47.2783 -107.6972 275° West 395 455 43,000  Level Salt Lake Center
12:47PM 47.2881 -107.8544 275° West 391 450 43,000  Level Salt Lake Center
12:48PM 47.2978 -108.0111 275° West 388 447 43,000  Level Salt Lake Center
12:49PM 47.3067 -108.1717 275° West 391 450 43,000  Level Salt Lake Center
12:50PM 47.3161 -108.3275 275° West 389 448 43,000  Level Salt Lake Center
12:51PM 47.3236 -108.4861 274° West 388 447 43,000  Level Salt Lake Center
12:53PM 47.3358 -108.6753 276° West 388 447 43,000  Level Salt Lake Center
12:54PM 47.3442 -108.8331 275° West 388 447 43,000  Level Salt Lake Center
12:55PM 47.3511 -108.9928 274° West 389 448 43,000  Level Salt Lake Center
12:56PM 47.3589 -109.1503 274° West 388 447 43,000  Level Salt Lake Center
12:57PM 47.3664 -109.3083 274° West 388 447 43,000  Level Salt Lake Center
12:58PM 47.3744 -109.4686 274° West 390 449 43,000  Level Salt Lake Center
12:59PM 47.3839 -109.6611 274° West 393 452 43,000  Level Salt Lake Center
01:00PM 47.3900 -109.8211 273° West 392 451 43,000  Level Salt Lake Center
01:01PM 47.3981 -109.9822 274° West 394 453 43,000  Level Salt Lake Center
01:02PM 47.4042 -110.1422 273° West 392 451 43,000  Level Salt Lake Center
01:03PM 47.4106 -110.3011 273° West 390 449 43,000  Level Salt Lake Center
01:04PM 47.4169 -110.4611 273° West 391 450 43,000  Level Salt Lake Center
01:05PM 47.4231 -110.6211 273° West 390 449 43,000  Level Salt Lake Center
01:06PM 47.4297 -110.8144 273° West 393 452 43,000  Level Salt Lake Center
01:07PM 47.4356 -110.9772 273° West 396 456 43,000  Level Salt Lake Center
01:08PM 47.4406 -111.1403 273° West 395 455 43,000  Level Salt Lake Center
01:09PM 47.4442 -111.3067 272° West 398 458 43,000  Level Salt Lake Center
01:10PM 47.4497 -111.4744 273° West 402 463 43,000  Level Salt Lake Center
01:11PM 47.4539 -111.6406 272° West 402 463 43,000  Level Salt Lake Center
01:12PM 47.4558 -111.8042 271° West 399 459 43,000  Level Salt Lake Center
01:13PM 47.4592 -111.9667 272° West 396 456 43,000  Level Salt Lake Center
01:14PM 47.4611 -112.1594 271° West 393 452 43,000  Level Salt Lake Center
01:15PM 47.4633 -112.3211 271° West 395 455 43,000  Level Salt Lake Center
01:16PM 47.4653 -112.4828 271° West 395 455 43,000  Level Salt Lake Center
01:17PM 47.4661 -112.6436 270° West 393 452 43,000  Level Salt Lake Center
01:18PM 47.4678 -112.8036 271° West 391 450 43,000  Level Salt Lake Center
01:19PM 47.4703 -112.9764 271° West 389 448 43,000  Level Salt Lake Center
01:20PM 47.4706 -113.1417 270° West 392 451 43,000  Level Salt Lake Center
01:21PM 47.4722 -113.2986 271° West 393 452 43,000  Level Salt Lake Center
01:23PM 47.4731 -113.4614 270° West 396 456 43,000  Level Salt Lake Center
01:24PM 47.4736 -113.6525 270° West 390 449 43,000  Level Salt Lake Center
01:25PM 47.4725 -113.8122 269° West 389 448 43,000  Level Salt Lake Center
01:26PM 47.4722 -113.9731 270° West 391 450 43,000  Level Salt Lake Center
01:27PM 47.4731 -114.1353 270° West 393 452 43,000  Level Salt Lake Center
01:28PM 47.4717 -114.2969 269° West 393 452 43,000  Level Salt Lake Center
01:28PM 47.4700 -114.4247 269° West 390 449 43,000  Level Seattle Center
01:29PM 47.4694 -114.5856 270° West 390 449 43,000  Level Seattle Center
01:30PM 47.4858 -114.7458 279° West 393 452 43,000  Level Seattle Center
01:32PM 47.5103 -114.9067 283° West 398 458 43,000  Level Seattle Center
01:33PM 47.5333 -115.0672 282° West 400 460 43,000  Level Seattle Center
01:34PM 47.5550 -115.2275 281° West 398 458 43,000  Level Seattle Center
01:35PM 47.5831 -115.4208 282° West 399 459 43,000  Level Seattle Center
01:36PM 47.6053 -115.5808 282° West 399 459 43,000  Level Seattle Center
01:37PM 47.6261 -115.7433 281° West 399 459 43,000  Level Seattle Center
01:38PM 47.6489 -115.9056 282° West 401 461 43,000  Level Seattle Center
01:39PM 47.6703 -116.0672 281° West 402 463 43,000  Level Seattle Center
01:40PM 47.6903 -116.2267 281° West 399 459 43,000  Level Seattle Center
01:41PM 47.7111 -116.3883 281° West 399 459 43,000  Level Seattle Center
01:42PM 47.7328 -116.5494 281° West 399 459 43,000  Level Seattle Center
01:43PM 47.7539 -116.7114 281° West 402 463 43,000  Level Seattle Center
01:44PM 47.7789 -116.9064 281° West 404 465 43,000  Level Seattle Center
01:45PM 47.8003 -117.0686 281° West 406 467 43,000  Level Seattle Center
01:46PM 47.8194 -117.2314 280° West 406 467 43,000  Level Seattle Center
01:47PM 47.8381 -117.3933 280° West 404 465 43,000  Level Seattle Center
01:48PM 47.8575 -117.5567 280° West 404 465 43,000  Level Seattle Center
01:49PM 47.8758 -117.7217 279° West 406 467 43,000  Level Seattle Center
01:50PM 47.8956 -117.8875 280° West 408 470 43,000  Level Seattle Center
01:51PM 47.9139 -118.0517 280° West 405 466 43,000  Level Seattle Center
01:52PM 47.9364 -118.2500 280° West 407 468 43,000  Level Seattle Center
01:53PM 47.9547 -118.4167 279° West 409 471 43,000  Level Seattle Center
01:54PM 47.9733 -118.5839 279° West 410 472 43,000  Level Seattle Center
01:55PM 47.9906 -118.7544 279° West 416 479 43,000  Level Seattle Center
01:56PM 48.0094 -118.9211 280° West 411 473 43,000  Level Seattle Center
01:57PM 48.0303 -119.0881 281° West 411 473 43,000  Level Seattle Center
01:58PM 48.0431 -119.2594 276° West 418 481 43,000  Level Seattle Center
01:59PM 48.0606 -119.4264 279° West 411 473 43,000  Level Seattle Center
02:00PM 48.0769 -119.5931 278° West 407 468 43,000  Level Seattle Center
02:01PM 48.0958 -119.7586 280° West 405 466 43,000  Level Seattle Center
02:02PM 48.1181 -119.9600 279° West 411 473 43,000 -60 Level Seattle Center
02:03PM 48.1303 -120.1269 276° West 403 464 42,900 -960 Descending Seattle Center
02:04PM 48.1583 -120.2969 284° West 423 487 41,100 -2,100 Descending Seattle Center
02:05PM 48.1881 -120.4658 285° West 423 487 38,700 -2,280 Descending Seattle Center
02:06PM 48.2208 -120.6356 286° West 426 490 36,500 -1,980 Descending Seattle Center
02:07PM 48.2503 -120.8072 285° West 427 491 34,700 -2,820 Descending Seattle Center
02:08PM 48.2844 -121.0089 284° West 448 516 30,800 -3,420 Descending Seattle Center
02:09PM 48.3153 -121.1872 285° West 448 516 27,800 -2,940 Descending Seattle Center
02:10PM 48.3167 -121.2833 271° West 440 506 26,300 -2,460 Descending Vancouver Center
02:11PM 48.3500 -121.4333 289° West 420 483 24,100 -2,160 Descending Vancouver Center
02:11PM 48.3697 -121.5222 288° West 415 478 23,100 -2,100 Descending Seattle Center
02:12PM 48.4000 -121.6761 287° West 394 453 20,900 -1,920 Descending Seattle Center
02:13PM 48.4492 -121.8167 298° West 386 444 19,200 -1,680 Descending Seattle Center
02:14PM 48.5111 -121.9792 300° West 379 436 17,500 -1,560 Descending Seattle Center
02:15PM 48.5622 -122.1119 300° West 374 430 16,100 -1,380 Descending Seattle Center
02:16PM 48.6114 -122.2433 300° West 368 423 14,800 -1,320 Descending Seattle Center
02:17PM 48.6603 -122.3692 300° West 358 412 13,500 -1,320 Descending Seattle Center
02:18PM 48.7031 -122.4886 299° West 338 389 12,200 -1,140 Descending Seattle Center
02:19PM 48.7575 -122.5975 307° West 330 380 11,200 -1,380 Descending Seattle Center
02:20PM 48.8178 -122.7178 307° West 309 356 9,400 -1,440 Descending Seattle Center
02:22PM 48.8667 -122.8333 303° West 280 322 8,000 -660 Descending Vancouver Center
02:23PM 48.9000 -122.9167 301° West 250 288 8,000 -660 Level Vancouver Center
02:24PM 48.9500 -122.9833 319° Northwest 250 288 6,700 -1,500 Descending Vancouver Center
02:25PM 49.0167 -122.9833 360° North 260 299 5,100 -1,380 Descending Vancouver Center
02:26PM 49.0667 -122.9000 48° Northeast 240 276 4,000 -840 Descending Vancouver Center
02:27PM 49.1167 -122.8833 12° North 220 253 3,500 -720 Descending Vancouver Center
02:28PM 49.1500 -122.9500 307° West 200 230 2,600 -900 Descending Vancouver Center
02:29PM 49.1500 -123.0333 270° West 170 196 1,700 -900 Descending Vancouver Center
02:30PM 49.1500 -123.0833 270° West 160 184 900 -840 Descending Vancouver Center